createdAt,value
2022-09-20T00:00:43.674Z,1.55
2022-09-20T00:01:48.874Z,1.40
2022-09-20T00:02:50.954Z,1.40
2022-09-20T00:03:58.735Z,1.35
2022-09-20T00:05:01.210Z,1.48
2022-09-20T00:06:05.380Z,1.30
2022-09-20T00:07:09.668Z,1.00
2022-09-20T00:08:15.842Z,1.20
2022-09-20T00:09:20.074Z,1.27
2022-09-20T00:10:25.803Z,1.40
2022-09-20T00:11:34.895Z,1.42
2022-09-20T00:12:38.924Z,1.20
2022-09-20T00:13:45.109Z,1.30
2022-09-20T00:14:49.728Z,1.10
2022-09-20T00:15:53.686Z,1.20
2022-09-20T00:16:57.325Z,1.38
2022-09-20T00:18:01.597Z,1.20
2022-09-20T00:19:06.304Z,1.40
2022-09-20T00:20:09.373Z,1.40
2022-09-20T00:21:19.731Z,1.08
2022-09-20T00:22:21.919Z,1.20
2022-09-20T00:23:25.729Z,1.05
2022-09-20T00:24:29.076Z,1.15
2022-09-20T00:25:33.503Z,1.38
2022-09-20T00:26:35.703Z,1.30
2022-09-20T00:27:37.888Z,1.40
2022-09-20T00:28:41.539Z,1.10
2022-09-20T00:29:43.723Z,1.30
2022-09-20T00:30:45.870Z,1.20
2022-09-20T00:31:48.167Z,1.20
2022-09-20T00:32:50.253Z,1.20
2022-09-20T00:34:14.264Z,1.30
2022-09-20T00:35:16.553Z,1.10
2022-09-20T00:36:18.642Z,1.35
2022-09-20T00:37:20.861Z,1.13
2022-09-20T00:38:22.967Z,1.20
2022-09-20T00:39:25.314Z,1.40
2022-09-20T00:40:27.513Z,1.30
2022-09-20T00:41:31.220Z,1.20
2022-09-20T00:42:33.763Z,1.20
2022-09-20T00:43:44.820Z,1.20
2022-09-20T00:44:57.160Z,1.00
2022-09-20T00:46:03.330Z,1.05
2022-09-20T00:47:06.618Z,1.27
2022-09-20T00:48:31.119Z,1.25
2022-09-20T00:49:37.002Z,1.10
2022-09-20T00:50:45.064Z,1.08
2022-09-20T00:51:52.439Z,1.57
2022-09-20T00:53:20.513Z,1.20
2022-09-20T00:54:24.798Z,1.33
2022-09-20T00:55:27.874Z,1.08
2022-09-20T00:56:40.933Z,1.50
2022-09-20T00:57:45.853Z,1.30
2022-09-20T00:59:02.074Z,1.20
2022-09-20T01:00:10.266Z,1.20
2022-09-20T01:01:12.944Z,1.30
2022-09-20T01:02:19.856Z,1.27
2022-09-20T01:03:27.969Z,1.23
2022-09-20T01:04:30.693Z,1.20
2022-09-20T01:05:33.554Z,1.38
2022-09-20T01:06:39.317Z,1.40
2022-09-20T01:07:44.311Z,1.40
2022-09-20T01:08:50.876Z,1.70
2022-09-20T01:09:53.258Z,1.70
2022-09-20T01:10:55.448Z,1.73
2022-09-20T01:12:02.149Z,1.63
2022-09-20T01:13:05.934Z,2.00
2022-09-20T01:14:08.488Z,1.73
2022-09-20T01:15:12.947Z,2.10
2022-09-20T01:16:17.410Z,1.60
2022-09-20T01:17:22.986Z,1.55
2022-09-20T01:18:26.867Z,1.55
2022-09-20T01:19:44.525Z,1.33
2022-09-20T01:20:48.447Z,1.20
2022-09-20T01:21:51.878Z,1.40
2022-09-20T01:23:08.901Z,1.20
2022-09-20T01:24:16.797Z,1.20
2022-09-20T01:25:51.353Z,1.33
2022-09-20T01:27:13.499Z,1.25
2022-09-20T01:28:16.338Z,1.52
2022-09-20T01:29:46.022Z,1.23
2022-09-20T01:30:52.326Z,1.13
2022-09-20T01:31:57.976Z,1.30
2022-09-20T01:33:27.594Z,1.30
2022-09-20T01:34:41.588Z,1.20
2022-09-20T01:35:45.510Z,1.15
2022-09-20T01:37:01.064Z,1.30
2022-09-20T01:38:17.411Z,1.60
2022-09-20T01:39:28.086Z,1.63
2022-09-20T01:41:01.849Z,1.75
2022-09-20T01:42:10.009Z,1.60
2022-09-20T01:43:39.293Z,1.63
2022-09-20T01:44:52.381Z,1.50
2022-09-20T01:45:54.841Z,2.35
2022-09-20T01:47:09.664Z,1.50
2022-09-20T01:48:26.737Z,1.70
2022-09-20T01:49:40.779Z,1.50
2022-09-20T01:51:07.049Z,2.00
2022-09-20T01:52:29.650Z,1.98
2022-09-20T01:53:31.720Z,1.60
2022-09-20T01:55:07.626Z,1.90
2022-09-20T01:56:37.897Z,1.80
2022-09-20T01:58:17.498Z,1.80
2022-09-20T01:59:43.580Z,1.63
2022-09-20T02:00:56.457Z,1.65
2022-09-20T02:02:17.017Z,1.63
2022-09-20T02:03:55.399Z,1.60
2022-09-20T02:05:00.027Z,1.70
2022-09-20T02:06:08.336Z,1.63
2022-09-20T02:07:33.924Z,1.67
2022-09-20T02:09:01.761Z,1.88
2022-09-20T02:10:27.765Z,1.70
2022-09-20T02:11:55.316Z,1.85
2022-09-20T02:13:04.270Z,1.85
2022-09-20T02:14:24.157Z,1.70
2022-09-20T02:15:47.606Z,1.60
2022-09-20T02:17:41.799Z,1.85
2022-09-20T02:19:15.469Z,2.10
2022-09-20T02:20:51.293Z,1.92
2022-09-20T02:22:02.403Z,1.90
2022-09-20T02:23:20.704Z,1.60
2022-09-20T02:24:53.457Z,1.52
2022-09-20T02:26:30.641Z,1.30
2022-09-20T02:27:38.619Z,1.38
2022-09-20T02:29:14.287Z,1.50
2022-09-20T02:30:37.519Z,1.75
2022-09-20T02:31:42.541Z,1.70
2022-09-20T02:33:05.909Z,1.70
2022-09-20T02:34:38.163Z,1.30
2022-09-20T02:35:52.079Z,1.40
2022-09-20T02:37:19.278Z,1.67
2022-09-20T02:38:59.405Z,1.40
2022-09-20T02:40:04.612Z,1.30
2022-09-20T02:41:21.228Z,1.55
2022-09-20T02:42:36.854Z,1.50
2022-09-20T02:43:45.214Z,1.50
2022-09-20T02:44:50.406Z,1.33
2022-09-20T02:46:28.751Z,1.47
2022-09-20T02:47:39.958Z,1.40
2022-09-20T02:48:59.226Z,1.65
2022-09-20T02:50:30.947Z,1.60
2022-09-20T02:51:59.697Z,1.50
2022-09-20T02:53:14.621Z,1.50
2022-09-20T02:54:42.511Z,1.67
2022-09-20T02:56:18.763Z,1.40
2022-09-20T02:57:45.055Z,1.40
2022-09-20T02:59:01.522Z,1.17
2022-09-20T03:00:29.056Z,1.63
2022-09-20T03:02:40.396Z,1.65
2022-09-20T03:04:13.605Z,1.58
2022-09-20T03:05:33.074Z,1.60
2022-09-20T03:07:11.249Z,1.60
2022-09-20T03:08:48.600Z,1.60
2022-09-20T03:10:06.689Z,1.52
2022-09-20T03:11:54.132Z,1.52
2022-09-20T03:12:59.065Z,1.70
2022-09-20T03:14:26.455Z,1.60
2022-09-20T03:16:05.459Z,1.53
2022-09-20T03:17:43.237Z,1.23
2022-09-20T03:19:28.314Z,1.40
2022-09-20T03:20:33.945Z,1.80
2022-09-20T03:22:08.662Z,1.70
2022-09-20T03:23:22.935Z,1.70
2022-09-20T03:24:30.549Z,1.50
2022-09-20T03:25:49.986Z,1.55
2022-09-20T03:27:08.606Z,1.65
2022-09-20T03:28:32.335Z,1.40
2022-09-20T03:29:43.190Z,1.70
2022-09-20T03:30:57.216Z,1.80
2022-09-20T03:31:59.368Z,1.77
2022-09-20T03:33:32.156Z,1.60
2022-09-20T03:34:48.744Z,2.00
2022-09-20T03:35:50.899Z,1.67
2022-09-20T03:37:05.393Z,1.80
2022-09-20T03:38:25.217Z,1.65
2022-09-20T03:40:04.319Z,1.80
2022-09-20T03:41:30.002Z,1.42
2022-09-20T03:42:32.467Z,1.70
2022-09-20T03:43:37.355Z,1.50
2022-09-20T03:45:17.295Z,1.60
2022-09-20T03:46:30.134Z,1.83
2022-09-20T03:47:57.636Z,1.75
2022-09-20T03:49:15.623Z,1.77
2022-09-20T03:50:40.480Z,1.98
2022-09-20T03:52:07.092Z,2.15
2022-09-20T03:53:18.307Z,1.60
2022-09-20T03:54:53.734Z,1.67
2022-09-20T03:56:37.314Z,1.60
2022-09-20T03:57:57.424Z,1.48
2022-09-20T03:59:18.945Z,1.48
2022-09-20T04:00:37.239Z,1.63
2022-09-20T04:01:51.325Z,1.85
2022-09-20T04:03:18.161Z,2.05
2022-09-20T04:04:49.328Z,1.98
2022-09-20T04:06:26.211Z,1.63
2022-09-20T04:08:19.294Z,1.88
2022-09-20T04:09:51.113Z,1.83
2022-09-20T04:11:16.761Z,2.10
2022-09-20T04:12:53.616Z,1.80
2022-09-20T04:14:38.415Z,1.70
2022-09-20T04:16:07.419Z,1.50
2022-09-20T04:17:44.515Z,1.67
2022-09-20T04:19:12.342Z,1.70
2022-09-20T04:20:35.833Z,1.98
2022-09-20T04:21:55.058Z,1.85
2022-09-20T04:23:06.619Z,1.75
2022-09-20T04:24:40.589Z,1.60
2022-09-20T04:25:48.958Z,1.53
2022-09-20T04:27:02.313Z,1.50
2022-09-20T04:28:31.893Z,1.60
2022-09-20T04:29:38.115Z,1.80
2022-09-20T04:30:44.689Z,1.60
2022-09-20T04:32:03.071Z,1.60
2022-09-20T04:33:17.009Z,1.67
2022-09-20T04:34:51.908Z,1.50
2022-09-20T04:36:30.303Z,1.73
2022-09-20T04:37:40.065Z,1.77
2022-09-20T04:38:43.285Z,2.13
2022-09-20T04:39:56.374Z,1.88
2022-09-20T04:41:28.880Z,1.50
2022-09-20T04:42:48.287Z,1.80
2022-09-20T04:44:18.614Z,1.70
2022-09-20T04:45:51.791Z,1.50
2022-09-20T04:47:32.908Z,1.50
2022-09-20T04:49:05.951Z,1.35
2022-09-20T04:50:23.418Z,1.50
2022-09-20T04:51:37.105Z,1.40
2022-09-20T04:53:00.181Z,1.50
2022-09-20T04:54:23.568Z,1.77
2022-09-20T04:55:45.671Z,1.40
2022-09-20T04:57:25.378Z,2.22
2022-09-20T04:58:36.754Z,1.80
2022-09-20T04:59:53.737Z,1.67
2022-09-20T05:00:58.933Z,1.70
2022-09-20T05:02:22.795Z,1.90
2022-09-20T05:03:50.089Z,1.80
2022-09-20T05:05:10.967Z,2.00
2022-09-20T05:06:18.786Z,2.10
2022-09-20T05:07:50.445Z,2.00
2022-09-20T05:09:14.250Z,2.17
2022-09-20T05:10:38.269Z,2.03
2022-09-20T05:11:49.563Z,1.90
2022-09-20T05:13:07.212Z,2.00
2022-09-20T05:14:35.547Z,1.98
2022-09-20T05:15:44.576Z,2.10
2022-09-20T05:16:52.936Z,1.77
2022-09-20T05:18:46.338Z,1.90
2022-09-20T05:20:15.726Z,1.60
2022-09-20T05:21:54.742Z,1.50
2022-09-20T05:23:36.023Z,1.60
2022-09-20T05:24:58.964Z,1.50
2022-09-20T05:26:15.262Z,1.60
2022-09-20T05:27:49.122Z,1.80
2022-09-20T05:29:24.657Z,1.50
2022-09-20T05:30:55.779Z,1.42
2022-09-20T05:32:21.960Z,1.40
2022-09-20T05:34:01.066Z,1.60
2022-09-20T05:35:32.459Z,1.50
2022-09-20T05:37:02.325Z,1.52
2022-09-20T05:38:18.088Z,1.52
2022-09-20T05:39:47.016Z,1.40
2022-09-20T05:41:00.450Z,1.40
2022-09-20T05:42:09.997Z,1.20
2022-09-20T05:43:16.330Z,1.52
2022-09-20T05:44:31.185Z,1.85
2022-09-20T05:46:10.437Z,1.80
2022-09-20T05:47:39.093Z,1.58
2022-09-20T05:49:22.759Z,1.50
2022-09-20T05:50:55.783Z,1.45
2022-09-20T05:52:23.645Z,1.60
2022-09-20T05:53:58.674Z,1.65
2022-09-20T05:55:17.272Z,1.40
2022-09-20T05:56:37.375Z,1.50
2022-09-20T05:58:05.941Z,1.70
2022-09-20T05:59:29.535Z,1.83
2022-09-20T06:00:46.111Z,2.15
2022-09-20T06:02:16.144Z,1.85
2022-09-20T06:03:30.584Z,2.03
2022-09-20T06:04:58.012Z,1.70
2022-09-20T06:06:13.275Z,1.92
2022-09-20T06:08:00.625Z,1.85
2022-09-20T06:09:33.560Z,2.80
2022-09-20T06:10:44.075Z,2.13
2022-09-20T06:12:17.110Z,2.22
2022-09-20T06:13:34.305Z,1.67
2022-09-20T06:15:16.600Z,1.92
2022-09-20T06:16:38.493Z,2.05
2022-09-20T06:18:16.735Z,2.10
2022-09-20T06:19:24.810Z,2.10
2022-09-20T06:20:39.419Z,1.77
2022-09-20T06:21:45.555Z,2.05
2022-09-20T06:22:52.121Z,1.60
2022-09-20T06:24:00.639Z,1.83
2022-09-20T06:25:25.169Z,1.98
2022-09-20T06:26:33.858Z,1.80
2022-09-20T06:27:44.785Z,2.00
2022-09-20T06:28:58.366Z,1.83
2022-09-20T06:30:08.306Z,1.80
2022-09-20T06:31:11.546Z,1.90
2022-09-20T06:32:17.598Z,1.90
2022-09-20T06:33:28.353Z,1.98
2022-09-20T06:34:30.847Z,1.80
2022-09-20T06:36:32.423Z,1.90
2022-09-20T06:38:05.198Z,1.77
2022-09-20T06:39:59.576Z,1.65
2022-09-20T06:41:21.669Z,1.90
2022-09-20T06:42:26.985Z,1.60
2022-09-20T06:43:31.038Z,2.03
2022-09-20T06:44:33.205Z,1.85
2022-09-20T06:45:36.185Z,1.85
2022-09-20T06:46:39.434Z,1.80
2022-09-20T06:47:44.132Z,2.03
2022-09-20T06:48:47.323Z,1.80
2022-09-20T06:49:50.234Z,1.92
2022-09-20T06:50:52.547Z,1.90
2022-09-20T06:51:55.883Z,2.10
2022-09-20T06:52:58.032Z,2.22
2022-09-20T06:54:00.424Z,2.60
2022-09-20T06:55:07.557Z,1.80
2022-09-20T06:56:15.912Z,1.80
2022-09-20T06:57:27.946Z,2.00
2022-09-20T06:58:30.087Z,3.10
2022-09-20T06:59:33.830Z,2.90
2022-09-20T07:00:36.387Z,2.30
2022-09-20T07:01:38.665Z,2.70
2022-09-20T07:02:40.908Z,2.40
2022-09-20T07:03:43.385Z,2.75
2022-09-20T07:04:45.595Z,2.90
2022-09-20T07:05:48.504Z,2.70
2022-09-20T07:06:51.301Z,2.40
2022-09-20T07:08:00.039Z,2.70
2022-09-20T07:09:02.498Z,2.45
2022-09-20T07:10:05.044Z,2.92
2022-09-20T07:11:10.336Z,2.95
2022-09-20T07:12:12.662Z,2.80
2022-09-20T07:13:14.908Z,2.90
2022-09-20T07:14:17.349Z,3.20
2022-09-20T07:15:22.953Z,4.60
2022-09-20T07:16:26.532Z,4.93
2022-09-20T07:17:28.815Z,9.57
2022-09-20T07:18:32.339Z,10.75
2022-09-20T07:19:35.285Z,13.50
2022-09-20T07:20:37.461Z,12.10
2022-09-20T07:21:39.685Z,10.20
2022-09-20T07:22:41.846Z,9.43
2022-09-20T07:23:48.652Z,9.30
2022-09-20T07:24:51.272Z,6.53
2022-09-20T07:25:54.647Z,5.77
2022-09-20T07:26:59.547Z,6.10
2022-09-20T07:28:01.812Z,6.43
2022-09-20T07:29:04.052Z,7.18
2022-09-20T07:30:07.767Z,5.70
2022-09-20T07:31:10.287Z,5.70
2022-09-20T07:32:12.670Z,5.70
2022-09-20T07:33:19.724Z,5.30
2022-09-20T07:34:21.991Z,5.47
2022-09-20T07:35:24.565Z,5.30
2022-09-20T07:36:26.751Z,5.20
2022-09-20T07:37:31.850Z,4.80
2022-09-20T07:38:36.060Z,5.00
2022-09-20T07:39:38.559Z,4.95
2022-09-20T07:40:40.741Z,4.03
2022-09-20T07:41:46.705Z,3.08
2022-09-20T07:42:51.079Z,3.10
2022-09-20T07:44:16.573Z,2.90
2022-09-20T07:45:18.784Z,2.97
2022-09-20T07:46:23.553Z,2.88
2022-09-20T07:47:26.735Z,2.97
2022-09-20T07:48:33.770Z,2.90
2022-09-20T07:49:36.539Z,3.20
2022-09-20T07:50:38.790Z,3.97
2022-09-20T07:51:40.941Z,3.60
2022-09-20T07:52:44.255Z,3.67
2022-09-20T07:53:46.364Z,3.67
2022-09-20T07:54:50.035Z,3.45
2022-09-20T07:56:00.208Z,3.60
2022-09-20T07:57:03.202Z,2.80
2022-09-20T07:58:05.309Z,3.10
2022-09-20T07:59:07.594Z,3.67
2022-09-20T08:00:11.523Z,3.17
2022-09-20T08:01:16.181Z,3.47
2022-09-20T08:02:18.573Z,3.13
2022-09-20T08:03:21.141Z,2.80
2022-09-20T08:04:24.028Z,2.90
2022-09-20T08:05:27.518Z,2.80
2022-09-20T08:06:30.464Z,2.78
2022-09-20T08:07:33.333Z,2.45
2022-09-20T08:08:37.969Z,2.60
2022-09-20T08:09:40.126Z,3.10
2022-09-20T08:10:43.071Z,2.10
2022-09-20T08:11:46.373Z,1.63
2022-09-20T08:14:17.650Z,1.48
2022-09-20T08:15:19.970Z,1.75
2022-09-20T08:16:22.530Z,1.70
2022-09-20T08:17:27.492Z,1.90
2022-09-20T08:18:31.432Z,1.85
2022-09-20T08:19:33.701Z,1.70
2022-09-20T08:20:39.579Z,2.30
2022-09-20T08:21:41.756Z,2.25
2022-09-20T08:22:56.428Z,1.65
2022-09-20T08:24:07.988Z,1.80
2022-09-20T08:25:10.169Z,1.50
2022-09-20T08:26:14.263Z,2.00
2022-09-20T08:27:16.385Z,1.90
2022-09-20T08:28:18.538Z,2.00
2022-09-20T08:29:20.718Z,1.92
2022-09-20T08:30:27.854Z,2.10
2022-09-20T08:31:37.098Z,1.88
2022-09-20T08:32:41.312Z,2.20
2022-09-20T08:33:43.688Z,2.55
2022-09-20T08:34:49.297Z,2.10
2022-09-20T08:35:57.545Z,2.33
2022-09-20T08:37:00.148Z,2.40
2022-09-20T08:40:49.460Z,2.63
2022-09-20T08:41:57.746Z,2.27
2022-09-20T08:43:05.313Z,2.15
2022-09-20T08:44:13.071Z,2.30
2022-09-20T08:45:33.691Z,2.60
2022-09-20T08:46:49.446Z,2.30
2022-09-20T08:47:58.491Z,2.25
2022-09-20T08:49:03.973Z,2.25
2022-09-20T08:50:10.147Z,2.40
2022-09-20T08:51:22.675Z,2.78
2022-09-20T08:52:36.179Z,2.30
2022-09-20T08:53:50.295Z,2.43
2022-09-20T08:54:52.820Z,2.20
2022-09-20T08:55:58.016Z,2.70
2022-09-20T08:57:14.612Z,2.67
2022-09-20T08:58:17.138Z,2.40
2022-09-20T08:59:22.674Z,2.47
2022-09-20T09:00:28.280Z,2.20
2022-09-20T09:01:32.534Z,2.40
2022-09-20T09:02:35.972Z,2.35
2022-09-20T09:03:38.616Z,2.45
2022-09-20T09:04:42.862Z,2.67
2022-09-20T09:05:53.382Z,2.30
2022-09-20T09:06:55.555Z,2.40
2022-09-20T09:08:04.643Z,2.65
2022-09-20T09:09:08.147Z,2.70
2022-09-20T09:10:10.436Z,2.80
2022-09-20T09:11:17.748Z,2.47
2022-09-20T09:12:27.301Z,2.15
2022-09-20T09:13:48.729Z,2.20
2022-09-20T09:15:01.855Z,2.10
2022-09-20T09:16:15.410Z,2.43
2022-09-20T09:17:19.903Z,2.53
2022-09-20T09:18:31.780Z,2.83
2022-09-20T09:19:54.113Z,2.40
2022-09-20T09:20:58.884Z,2.10
2022-09-20T09:22:05.827Z,2.20
2022-09-20T09:23:26.315Z,2.10
2022-09-20T09:24:28.868Z,2.22
2022-09-20T09:25:34.585Z,2.20
2022-09-20T09:26:43.557Z,2.30
2022-09-20T09:28:03.355Z,2.60
2022-09-20T09:29:24.944Z,2.40
2022-09-20T09:30:37.154Z,2.50
2022-09-20T09:31:39.946Z,2.30
2022-09-20T09:32:42.175Z,2.50
2022-09-20T09:33:45.989Z,2.30
2022-09-20T09:34:48.346Z,2.53
2022-09-20T09:36:01.978Z,2.30
2022-09-20T09:37:33.625Z,2.40
2022-09-20T09:38:38.503Z,2.35
2022-09-20T09:39:40.913Z,2.30
2022-09-20T09:41:13.964Z,2.20
2022-09-20T09:42:25.949Z,2.50
2022-09-20T09:43:35.603Z,2.30
2022-09-20T09:44:40.845Z,2.40
2022-09-20T09:45:43.281Z,2.10
2022-09-20T09:46:45.696Z,2.20
2022-09-20T09:47:47.916Z,2.38
2022-09-20T09:49:18.784Z,2.55
2022-09-20T09:50:30.921Z,2.50
2022-09-20T09:51:34.101Z,2.40
2022-09-20T09:52:36.497Z,2.47
2022-09-20T09:53:39.817Z,2.30
2022-09-20T09:54:49.070Z,2.40
2022-09-20T09:56:20.274Z,2.40
2022-09-20T09:57:43.623Z,2.45
2022-09-20T09:59:08.117Z,2.53
2022-09-20T10:00:21.253Z,2.28
2022-09-20T10:01:42.674Z,2.40
2022-09-20T10:02:50.893Z,2.13
2022-09-20T10:04:24.814Z,2.30
2022-09-20T10:05:52.453Z,2.08
2022-09-20T10:07:03.694Z,2.60
2022-09-20T10:08:19.727Z,2.30
2022-09-20T10:10:06.221Z,2.20
2022-09-20T10:11:20.530Z,2.00
2022-09-20T10:13:11.430Z,2.10
2022-09-20T10:14:31.885Z,2.10
2022-09-20T10:15:44.369Z,2.40
2022-09-20T10:17:09.664Z,2.30
2022-09-20T10:18:30.752Z,2.37
2022-09-20T10:20:10.096Z,2.30
2022-09-20T10:21:29.778Z,2.53
2022-09-20T10:23:06.629Z,2.50
2022-09-20T10:24:33.933Z,2.50
2022-09-20T10:25:47.527Z,2.40
2022-09-20T10:27:08.299Z,2.50
2022-09-20T10:28:19.518Z,2.30
2022-09-20T10:29:53.148Z,2.50
2022-09-20T10:31:03.932Z,2.30
2022-09-20T10:32:23.898Z,2.40
2022-09-20T10:33:52.466Z,2.10
2022-09-20T10:35:15.922Z,2.38
2022-09-20T10:36:56.016Z,2.25
2022-09-20T10:38:21.776Z,2.20
2022-09-20T10:39:39.226Z,2.42
2022-09-20T10:41:40.336Z,2.20
2022-09-20T10:43:03.769Z,2.40
2022-09-20T10:44:10.679Z,2.35
2022-09-20T10:45:55.887Z,2.30
2022-09-20T10:46:52.704Z,2.57
2022-09-20T10:48:40.787Z,2.30
2022-09-20T10:49:54.406Z,2.80
2022-09-20T10:51:05.374Z,2.40
2022-09-20T10:52:29.885Z,2.28
2022-09-20T10:53:50.411Z,2.30
2022-09-20T10:55:31.253Z,2.38
2022-09-20T10:56:36.838Z,2.30
2022-09-20T10:57:51.094Z,2.45
2022-09-20T10:59:13.478Z,2.40
2022-09-20T11:01:03.987Z,2.20
2022-09-20T11:02:29.060Z,2.20
2022-09-20T11:03:55.809Z,2.60
2022-09-20T11:04:59.226Z,1.80
2022-09-20T11:06:25.054Z,1.70
2022-09-20T11:07:39.476Z,2.40
2022-09-20T11:08:44.124Z,2.30
2022-09-20T11:09:59.724Z,2.20
2022-09-20T11:11:05.818Z,2.40
2022-09-20T11:12:28.051Z,2.35
2022-09-20T11:13:48.651Z,2.33
2022-09-20T11:15:12.615Z,2.17
2022-09-20T11:16:43.566Z,2.50
2022-09-20T11:18:01.650Z,2.60
2022-09-20T11:19:21.012Z,2.50
2022-09-20T11:20:29.573Z,2.30
2022-09-20T11:21:38.672Z,2.50
2022-09-20T11:22:55.706Z,2.15
2022-09-20T11:24:11.709Z,2.20
2022-09-20T11:25:55.503Z,2.20
2022-09-20T11:27:02.785Z,2.20
2022-09-20T11:28:04.973Z,2.20
2022-09-20T11:29:22.121Z,2.33
2022-09-20T11:30:24.581Z,2.10
2022-09-20T11:31:50.782Z,2.20
2022-09-20T11:33:11.158Z,2.30
2022-09-20T11:34:29.956Z,2.42
2022-09-20T11:35:51.525Z,1.92
2022-09-20T11:37:00.929Z,2.30
2022-09-20T11:38:16.531Z,2.38
2022-09-20T11:39:28.002Z,2.30
2022-09-20T11:40:33.347Z,2.10
2022-09-20T11:41:36.363Z,2.50
2022-09-20T11:42:41.597Z,2.60
2022-09-20T11:43:46.145Z,2.50
2022-09-20T11:44:48.401Z,2.33
2022-09-20T11:45:55.267Z,2.30
2022-09-20T11:47:12.575Z,2.40
2022-09-20T11:48:25.358Z,2.60
2022-09-20T11:49:45.283Z,2.55
2022-09-20T11:51:11.972Z,2.50
2022-09-20T11:52:32.602Z,2.60
2022-09-20T11:54:15.508Z,2.10
2022-09-20T11:55:48.416Z,2.47
2022-09-20T11:56:53.834Z,2.40
2022-09-20T11:58:23.017Z,2.47
2022-09-20T11:59:37.512Z,3.00
2022-09-20T12:00:43.635Z,2.40
2022-09-20T12:01:46.131Z,2.58
2022-09-20T12:02:51.740Z,2.60
2022-09-20T12:04:31.798Z,2.30
2022-09-20T12:05:39.123Z,2.35
2022-09-20T12:06:46.430Z,2.42
2022-09-20T12:07:55.048Z,2.05
2022-09-20T12:09:36.572Z,1.95
2022-09-20T12:10:40.697Z,2.08
2022-09-20T12:11:43.350Z,1.70
2022-09-20T12:12:48.332Z,1.90
2022-09-20T12:14:01.345Z,1.70
2022-09-20T12:15:07.837Z,1.58
2022-09-20T12:16:18.342Z,2.03
2022-09-20T12:17:50.665Z,1.70
2022-09-20T12:18:56.480Z,1.70
2022-09-20T12:19:59.198Z,1.65
2022-09-20T12:21:08.997Z,1.58
2022-09-20T12:22:17.116Z,1.50
2022-09-20T12:23:38.442Z,1.70
2022-09-20T12:24:45.162Z,1.60
2022-09-20T12:26:06.253Z,1.60
2022-09-20T12:27:29.678Z,1.98
2022-09-20T12:28:39.168Z,1.90
2022-09-20T12:29:50.146Z,1.90
2022-09-20T12:31:32.030Z,1.90
2022-09-20T12:32:47.237Z,1.90
2022-09-20T12:34:01.907Z,1.80
2022-09-20T12:35:36.213Z,1.60
2022-09-20T12:36:42.653Z,1.70
2022-09-20T12:37:44.762Z,1.67
2022-09-20T12:38:49.757Z,1.90
2022-09-20T12:39:55.715Z,1.77
2022-09-20T12:41:16.610Z,1.93
2022-09-20T12:42:18.734Z,1.70
2022-09-20T12:43:22.801Z,1.67
2022-09-20T12:44:41.535Z,1.85
2022-09-20T12:45:54.246Z,1.80
2022-09-20T12:47:04.923Z,1.63
2022-09-20T12:48:19.038Z,1.73
2022-09-20T12:49:51.853Z,1.55
2022-09-20T12:51:37.083Z,1.58
2022-09-20T12:53:03.990Z,1.55
2022-09-20T12:54:09.483Z,1.77
2022-09-20T12:55:26.248Z,1.50
2022-09-20T12:56:28.970Z,1.55
2022-09-20T12:57:32.849Z,1.80
2022-09-20T12:58:55.594Z,1.80
2022-09-20T13:00:02.060Z,1.60
2022-09-20T13:01:04.342Z,1.60
2022-09-20T13:02:57.274Z,1.67
2022-09-20T13:04:55.641Z,1.80
2022-09-20T13:06:23.017Z,1.70
2022-09-20T13:07:45.952Z,1.53
2022-09-20T13:09:03.342Z,1.52
2022-09-20T13:10:50.448Z,1.60
2022-09-20T13:11:58.648Z,1.60
2022-09-20T13:13:46.590Z,1.58
2022-09-20T13:17:04.635Z,1.80
2022-09-20T13:18:11.919Z,1.52
2022-09-20T13:19:35.707Z,1.48
2022-09-20T13:20:40.549Z,1.65
2022-09-20T13:22:04.725Z,1.70
2022-09-20T13:23:07.402Z,1.42
2022-09-20T13:24:17.294Z,1.48
2022-09-20T13:25:23.997Z,1.50
2022-09-20T13:26:30.321Z,1.45
2022-09-20T13:27:39.870Z,1.42
2022-09-20T13:28:53.098Z,1.60
2022-09-20T13:29:55.799Z,1.50
2022-09-20T13:31:27.196Z,1.50
2022-09-20T13:32:31.490Z,1.60
2022-09-20T13:33:36.282Z,1.53
2022-09-20T13:34:39.840Z,1.50
2022-09-20T13:35:47.159Z,1.60
2022-09-20T13:36:56.184Z,1.67
2022-09-20T13:38:07.134Z,1.40
2022-09-20T13:39:25.706Z,1.70
2022-09-20T13:40:40.070Z,1.52
2022-09-20T13:41:45.524Z,1.40
2022-09-20T13:43:12.944Z,1.70
2022-09-20T13:44:19.040Z,1.67
2022-09-20T13:45:22.386Z,1.90
2022-09-20T13:46:30.357Z,1.70
2022-09-20T13:47:32.914Z,1.92
2022-09-20T13:48:39.749Z,2.33
2022-09-20T13:49:45.615Z,2.40
2022-09-20T13:50:52.756Z,2.20
2022-09-20T13:51:58.345Z,2.20
2022-09-20T13:53:33.317Z,2.00
2022-09-20T13:54:37.509Z,1.70
2022-09-20T13:55:41.234Z,1.52
2022-09-20T13:56:43.908Z,1.70
2022-09-20T13:57:48.235Z,1.83
2022-09-20T13:58:52.796Z,1.60
2022-09-20T13:59:58.889Z,1.85
2022-09-20T14:01:11.495Z,1.80
2022-09-20T14:02:31.697Z,1.58
2022-09-20T14:03:37.856Z,1.60
2022-09-20T14:04:40.835Z,1.60
2022-09-20T14:05:52.075Z,1.70
2022-09-20T14:06:56.769Z,1.65
2022-09-20T14:08:03.388Z,1.70
2022-09-20T14:09:16.517Z,1.75
2022-09-20T14:10:55.734Z,1.55
2022-09-20T14:12:04.324Z,1.90
2022-09-20T14:13:11.145Z,1.98
2022-09-20T14:14:21.297Z,1.50
2022-09-20T14:15:37.334Z,1.52
2022-09-20T14:16:45.344Z,1.60
2022-09-20T14:17:50.989Z,1.77
2022-09-20T14:18:53.826Z,1.45
2022-09-20T14:19:58.931Z,1.50
2022-09-20T14:21:07.975Z,1.60
2022-09-20T14:22:23.990Z,1.52
2022-09-20T14:23:32.530Z,1.60
2022-09-20T14:25:03.589Z,1.80
2022-09-20T14:26:30.268Z,1.67
2022-09-20T14:27:43.070Z,1.70
2022-09-20T14:28:53.249Z,1.83
2022-09-20T14:29:56.563Z,1.58
2022-09-20T14:31:14.259Z,1.48
2022-09-20T14:32:19.411Z,1.47
2022-09-20T14:33:25.042Z,1.67
2022-09-20T14:34:27.574Z,1.60
2022-09-20T14:35:31.087Z,1.35
2022-09-20T14:36:33.220Z,1.50
2022-09-20T14:37:48.467Z,1.77
2022-09-20T14:38:54.699Z,2.08
2022-09-20T14:39:59.656Z,1.63
2022-09-20T14:41:01.821Z,1.77
2022-09-20T14:42:04.281Z,1.60
2022-09-20T14:43:07.720Z,1.90
2022-09-20T14:44:32.909Z,1.70
2022-09-20T14:45:39.983Z,1.80
2022-09-20T14:46:42.589Z,1.60
2022-09-20T14:47:56.758Z,1.70
2022-09-20T14:49:26.678Z,1.80
2022-09-20T14:50:28.900Z,1.58
2022-09-20T14:51:31.139Z,1.80
2022-09-20T14:52:37.412Z,1.65
2022-09-20T14:53:45.687Z,1.40
2022-09-20T14:55:02.628Z,1.80
2022-09-20T14:56:04.991Z,1.52
2022-09-20T14:57:14.927Z,1.90
2022-09-20T14:58:49.794Z,1.83
2022-09-20T14:59:44.704Z,1.90
2022-09-20T15:01:09.800Z,1.58
2022-09-20T15:02:29.291Z,1.50
2022-09-20T15:03:43.166Z,1.50
2022-09-20T15:05:01.184Z,1.45
2022-09-20T15:06:16.536Z,2.55
2022-09-20T15:07:20.500Z,1.50
2022-09-20T15:08:26.603Z,1.77
2022-09-20T15:09:32.577Z,1.60
2022-09-20T15:10:38.134Z,1.67
2022-09-20T15:11:41.038Z,1.73
2022-09-20T15:12:49.379Z,1.70
2022-09-20T15:14:00.403Z,1.52
2022-09-20T15:15:05.189Z,1.55
2022-09-20T15:16:12.091Z,1.67
2022-09-20T15:17:19.711Z,1.58
2022-09-20T15:18:34.457Z,2.67
2022-09-20T15:19:36.715Z,3.03
2022-09-20T15:20:38.865Z,2.10
2022-09-20T15:21:41.030Z,2.40
2022-09-20T15:22:43.245Z,1.73
2022-09-20T15:23:45.383Z,1.50
2022-09-20T15:24:47.553Z,1.70
2022-09-20T15:25:54.614Z,2.00
2022-09-20T15:26:56.987Z,1.70
2022-09-20T15:27:59.268Z,1.50
2022-09-20T15:29:01.533Z,1.37
2022-09-20T15:30:07.607Z,2.45
2022-09-20T15:31:10.927Z,1.80
2022-09-20T15:32:13.205Z,1.55
2022-09-20T15:33:15.553Z,1.52
2022-09-20T15:34:17.953Z,1.50
2022-09-20T15:35:20.344Z,1.70
2022-09-20T15:36:22.640Z,1.50
2022-09-20T15:37:24.782Z,1.65
2022-09-20T15:38:27.264Z,1.50
2022-09-20T15:39:29.532Z,1.60
2022-09-20T15:40:32.437Z,1.50
2022-09-20T15:41:37.539Z,1.60
2022-09-20T15:42:41.620Z,1.60
2022-09-20T15:43:45.838Z,1.42
2022-09-20T15:44:54.159Z,1.50
2022-09-20T15:46:00.765Z,1.60
2022-09-20T15:47:04.566Z,1.67
2022-09-20T15:48:07.627Z,1.50
2022-09-20T15:49:12.252Z,1.55
2022-09-20T15:50:16.729Z,1.60
2022-09-20T15:51:19.120Z,1.70
2022-09-20T15:52:24.536Z,1.70
2022-09-20T15:53:26.687Z,1.80
2022-09-20T15:54:28.757Z,1.88
2022-09-20T15:55:30.870Z,1.58
2022-09-20T15:56:36.152Z,1.73
2022-09-20T15:57:42.024Z,1.50
2022-09-20T15:58:49.101Z,1.70
2022-09-20T15:59:51.601Z,1.52
2022-09-20T16:00:53.754Z,1.50
2022-09-20T16:01:56.006Z,1.70
2022-09-20T16:02:58.442Z,1.52
2022-09-20T16:04:05.186Z,1.90
2022-09-20T16:05:10.050Z,1.90
2022-09-20T16:06:13.395Z,1.60
2022-09-20T16:07:17.709Z,1.50
2022-09-20T16:08:19.929Z,1.77
2022-09-20T16:09:22.025Z,1.67
2022-09-20T16:10:26.550Z,1.40
2022-09-20T16:11:28.753Z,1.83
2022-09-20T16:12:31.129Z,1.88
2022-09-20T16:13:34.087Z,1.70
2022-09-20T16:14:36.236Z,1.92
2022-09-20T16:15:38.665Z,1.90
2022-09-20T16:16:42.102Z,1.80
2022-09-20T16:18:04.411Z,1.95
2022-09-20T16:19:25.404Z,1.40
2022-09-20T16:20:29.790Z,1.80
2022-09-20T16:21:32.397Z,1.77
2022-09-20T16:22:37.170Z,1.77
2022-09-20T16:23:52.099Z,1.40
2022-09-20T16:24:56.882Z,1.60
2022-09-20T16:25:59.666Z,1.70
2022-09-20T16:27:03.955Z,1.50
2022-09-20T16:28:06.225Z,1.60